Time,TemperatureC,DewpointC,PressurehPa,WindDirection,WindDirectionDegrees,WindSpeedKMH,WindSpeedGustKMH,Humidity,HourlyPrecipMM,Conditions,Clouds,dailyrainMM,SolarRadiationWatts/m^2,UVIndex,SoftwareType,DateUTC
2021-10-26 00:04:37,12.9,11.6,1015.5,WSW,256,1.5,3.7,92,0.0,,,0.0,0,0,n/a,2021-10-25T11:04:37Z
2021-10-26 00:09:56,12.9,11.7,1015.6,West,259,1.5,3.7,92,0.0,,,0.0,0,0,n/a,2021-10-25T11:09:56Z
2021-10-26 00:14:54,13,11.7,1015.6,West,259,0.3,3.7,92,0.0,,,0.0,0,0,n/a,2021-10-25T11:14:54Z
2021-10-26 00:19:56,13,11.7,1015.7,North,7,0.8,1.9,92,0.0,,,0.0,0,0,n/a,2021-10-25T11:19:56Z
2021-10-26 00:24:58,12.8,11.6,1015.7,West,276,1,5.6,92,0.0,,,0.0,0,0,n/a,2021-10-25T11:24:58Z
2021-10-26 00:29:56,12.7,11.4,1015.8,WSW,242,1,3.7,92,0.0,,,0.0,0,0,n/a,2021-10-25T11:29:56Z
2021-10-26 00:34:56,12.5,11.2,1015.8,WNW,291,1,5.6,91.5,0.0,,,0.0,0,0,n/a,2021-10-25T11:34:56Z
2021-10-26 00:39:54,12.4,11.1,1015.8,NW,307,1.1,3.7,91.7,0.0,,,0.0,0,0,n/a,2021-10-25T11:39:54Z
2021-10-26 00:44:56,12.3,11,1015.8,WSW,257,0.7,5.6,92,0.0,,,0.0,0,0,n/a,2021-10-25T11:44:56Z
2021-10-26 00:49:56,12.2,10.9,1015.8,SE,131,0.5,3.7,91.5,0.0,,,0.0,0,0,n/a,2021-10-25T11:49:56Z
2021-10-26 00:54:59,12.2,10.9,1015.9,SSW,197,0.4,1.9,92,0.0,,,0.0,0,0,n/a,2021-10-25T11:54:59Z
2021-10-26 00:59:59,12.1,10.8,1015.9,WSW,245,1.9,5.6,92,0.0,,,0.0,0,0,n/a,2021-10-25T11:59:59Z
2021-10-26 01:04:59,12.1,10.8,1016.0,WNW,292,0.8,3.7,92,0.0,,,0.0,0,0,n/a,2021-10-25T12:04:59Z
2021-10-26 01:09:57,12,10.7,1015.9,SE,127,1.1,20.4,92,0.0,,,0.0,0,0,n/a,2021-10-25T12:09:57Z
2021-10-26 01:14:54,12,10.7,1016.0,WSW,249,0.5,1.9,92,0.0,,,0.0,0,0,n/a,2021-10-25T12:14:54Z
2021-10-26 01:19:55,12,10.7,1016.0,WSW,246,0.4,1.9,92,0.0,,,0.0,0,0,n/a,2021-10-25T12:19:55Z
2021-10-26 01:24:58,11.9,10.7,1015.9,NW,319,0.6,1.9,92,0.0,,,0.0,0,0,n/a,2021-10-25T12:24:58Z
2021-10-26 01:29:59,11.9,10.7,1015.9,NE,38,0.2,1.9,92,0.0,,,0.0,0,0,n/a,2021-10-25T12:29:59Z
2021-10-26 01:34:57,11.9,10.7,1015.9,West,263,1.2,3.7,92,0.0,,,0.0,0,0,n/a,2021-10-25T12:34:57Z
2021-10-26 01:39:56,11.9,10.6,1015.9,WNW,284,1.5,5.6,92,0.0,,,0.0,0,0,n/a,2021-10-25T12:39:56Z
2021-10-26 01:44:54,11.9,10.7,1015.8,NNE,24,1,4.8,92,0.0,,,0.0,0,0,n/a,2021-10-25T12:44:54Z
2021-10-26 01:49:55,11.9,10.7,1015.7,North,10,1,5.6,92,0.0,,,0.0,0,0,n/a,2021-10-25T12:49:55Z
2021-10-26 01:54:57,11.9,10.7,1015.6,NNW,344,1.3,3.7,92,0.0,,,0.0,0,0,n/a,2021-10-25T12:54:57Z
2021-10-26 01:59:58,11.9,10.7,1015.6,NW,308,0.8,3.7,92,0.0,,,0.0,0,0,n/a,2021-10-25T12:59:58Z
2021-10-26 02:04:49,11.9,10.6,1015.6,East,89,0.9,3.7,92,0.0,,,0.0,0,0,n/a,2021-10-25T13:04:49Z
2021-10-26 02:09:56,11.9,10.6,1015.6,ESE,106,2.1,6.4,92,0.0,,,0.0,0,0,n/a,2021-10-25T13:09:56Z
2021-10-26 02:14:55,11.8,10.6,1015.5,East,85,1.7,6.4,92,0.0,,,0.0,0,0,n/a,2021-10-25T13:14:55Z
2021-10-26 02:19:58,11.8,10.5,1015.5,NNW,336,1,3.7,92,0.0,,,0.0,0,0,n/a,2021-10-25T13:19:58Z
2021-10-26 02:24:55,11.8,10.5,1015.5,SSW,199,1.1,3.7,92,0.0,,,0.0,0,0,n/a,2021-10-25T13:24:55Z
2021-10-26 02:29:58,11.8,10.5,1015.4,NW,311,1.5,5.6,92,0.0,,,0.0,0,0,n/a,2021-10-25T13:29:58Z
2021-10-26 02:34:55,11.8,10.5,1015.3,NNE,32,1.1,5.6,92,0.0,,,0.0,0,0,n/a,2021-10-25T13:34:55Z
2021-10-26 02:39:59,11.7,10.4,1015.5,West,263,3.3,8,92,0.0,,,0.0,0,0,n/a,2021-10-25T13:39:59Z
2021-10-26 02:44:58,11.7,10.5,1015.5,NW,311,3.3,7.4,92.4,0.0,,,0.0,0,0,n/a,2021-10-25T13:44:58Z
2021-10-26 02:49:55,11.7,10.5,1015.6,West,260,3.2,6.4,92.8,0.0,,,0.0,0,0,n/a,2021-10-25T13:49:55Z
2021-10-26 02:54:58,11.7,10.6,1015.6,West,260,0.6,3.7,93,0.0,,,0.0,0,0,n/a,2021-10-25T13:54:58Z
2021-10-26 02:59:59,11.7,10.6,1015.7,NW,310,0.4,1.9,93,0.0,,,0.0,0,0,n/a,2021-10-25T13:59:59Z
2021-10-26 03:04:55,11.7,10.6,1015.8,West,273,0.8,6.4,93,0.0,,,0.0,0,0,n/a,2021-10-25T14:04:55Z
2021-10-26 03:09:54,11.7,10.6,1015.8,West,273,1.9,5.6,93,0.0,,,0.0,0,0,n/a,2021-10-25T14:09:54Z
2021-10-26 03:14:59,11.7,10.4,1015.8,West,267,1.3,3.7,92.3,0.0,,,0.0,0,0,n/a,2021-10-25T14:14:59Z
2021-10-26 03:19:59,11.6,10.3,1015.9,SSE,166,1,3.7,92,0.0,,,0.0,0,0,n/a,2021-10-25T14:19:59Z
2021-10-26 03:24:55,11.6,10.3,1015.9,SSW,205,1.9,5.6,92,0.0,,,0.0,0,0,n/a,2021-10-25T14:24:55Z
2021-10-26 03:29:56,11.6,10.3,1015.8,SE,126,2.3,5.6,92,0.0,,,0.0,0,0,n/a,2021-10-25T14:29:56Z
2021-10-26 03:34:57,11.7,10.4,1015.8,SE,126,1.2,3.7,92,0.0,,,0.0,0,0,n/a,2021-10-25T14:34:57Z
2021-10-26 03:39:56,11.7,10.4,1015.8,SE,141,2.7,5.6,92,0.0,,,0.0,0,0,n/a,2021-10-25T14:39:56Z
2021-10-26 03:44:59,11.6,10.4,1016.0,SE,132,1.5,3.7,92,0.0,,,0.0,0,0,n/a,2021-10-25T14:44:59Z
2021-10-26 03:49:58,11.7,10.4,1016.0,SE,126,0.8,3.7,92,0.0,,,0.0,0,0,n/a,2021-10-25T14:49:58Z
2021-10-26 03:54:56,11.6,10.4,1016.1,SSE,151,0.5,3.7,92,0.0,,,0.0,0,0,n/a,2021-10-25T14:54:56Z
2021-10-26 03:59:54,11.6,10.4,1016.2,ESE,102,1.5,3.7,92,0.0,,,0.0,0,0,n/a,2021-10-25T14:59:54Z
2021-10-26 04:04:55,11.6,10.4,1016.3,SSE,155,0.6,3.7,92,0.0,,,0.0,0,0,n/a,2021-10-25T15:04:55Z
2021-10-26 04:09:55,11.7,10.4,1016.4,WSW,254,1.3,3.7,92,0.0,,,0.0,0,0,n/a,2021-10-25T15:09:55Z
2021-10-26 04:14:59,11.7,10.4,1016.4,SW,228,0.6,5.6,92,0.0,,,0.0,0,0,n/a,2021-10-25T15:14:59Z
2021-10-26 04:19:59,11.7,10.4,1016.3,North,355,0.2,1.9,92,0.0,,,0.0,0,0,n/a,2021-10-25T15:19:59Z
2021-10-26 04:24:57,11.7,10.6,1016.3,ESE,105,0.7,1.9,93,0.0,,,0.0,0,0,n/a,2021-10-25T15:24:57Z
2021-10-26 04:29:57,11.7,10.6,1016.3,ESE,120,0.7,3.7,93,0.0,,,0.0,0,0,n/a,2021-10-25T15:29:57Z
2021-10-26 04:34:55,11.7,10.6,1016.3,WNW,286,0,1.9,93,0.0,,,0.0,0,0,n/a,2021-10-25T15:34:55Z
2021-10-26 04:39:59,11.7,10.5,1016.3,West,264,1.1,3.7,92.5,0.0,,,0.0,0,0,n/a,2021-10-25T15:39:59Z
2021-10-26 04:44:57,11.7,10.4,1016.3,West,260,1.4,9.7,92,0.0,,,0.0,0,0,n/a,2021-10-25T15:44:57Z
2021-10-26 04:49:57,11.6,10.3,1016.3,WSW,253,1.1,9.3,92,0.0,,,0.0,0,0,n/a,2021-10-25T15:49:57Z
2021-10-26 04:54:55,11.6,10.3,1016.1,South,191,0.6,3.7,92,0.0,,,0.0,0,0,n/a,2021-10-25T15:54:55Z
2021-10-26 04:59:57,11.6,10.3,1016.0,WSW,239,0,0,92,0.0,,,0.0,0,0,n/a,2021-10-25T15:59:57Z
2021-10-26 05:04:57,11.6,10.3,1016.0,West,266,0,0,92,0.0,,,0.0,0,0,n/a,2021-10-25T16:04:57Z
2021-10-26 05:09:55,11.6,10.3,1016.0,SE,131,0.4,3.2,92,0.0,,,0.0,0,0,n/a,2021-10-25T16:09:55Z
2021-10-26 05:14:57,11.6,10.3,1015.8,SE,138,3.1,9.7,92,0.0,,,0.0,0,0,n/a,2021-10-25T16:14:57Z
2021-10-26 05:19:57,11.6,10.3,1015.9,SE,128,1.1,3.7,92,0.0,,,0.0,0,0,n/a,2021-10-25T16:19:57Z
2021-10-26 05:24:54,11.6,10.3,1016.0,SE,135,0.7,3.7,92,0.0,,,0.0,0,0,n/a,2021-10-25T16:24:54Z
2021-10-26 05:29:54,11.6,10.3,1016.1,West,261,2.4,5.6,92,0.0,,,0.0,0,0,n/a,2021-10-25T16:29:54Z
2021-10-26 05:34:50,11.6,10.3,1016.2,West,262,3.5,6.4,92,0.0,,,0.0,0,0,n/a,2021-10-25T16:34:50Z
2021-10-26 05:39:50,11.5,10.2,1016.2,West,259,3,5.6,92,0.0,,,0.0,0,0,n/a,2021-10-25T16:39:50Z
2021-10-26 05:44:56,11.5,10.2,1016.2,West,259,1.7,5.6,92,0.0,,,0.0,0,0,n/a,2021-10-25T16:44:56Z
2021-10-26 05:49:56,11.5,10.2,1016.1,West,261,0.1,1.9,92,0.0,,,0.0,0,0,n/a,2021-10-25T16:49:56Z